Time;durP1;ratioP1;P1;durP2;ratioP2;P2;SDS_P1;SDS_P2;PMS_P1;PMS_P2;Temp;Humidity;BMP_temperature;BMP_pressure;BME280_temperature;BME280_humidity;BME280_pressure;Samples;Min_cycle;Max_cycle;Signal;HPM_P1;HPM_P2
2022/08/18 00:00:37;;;;;;;8.38;7.50;;;22.00;96.90;;;;;;2104218;28;20398;-74
2022/08/18 00:01:40;;;;;;;8.48;7.68;;;22.00;97.00;;;;;;2101475;28;20094;-74
2022/08/18 00:02:42;;;;;;;8.07;7.15;;;22.00;97.10;;;;;;2106774;28;20028;-73
2022/08/18 00:03:44;;;;;;;8.07;7.28;;;22.00;97.40;;;;;;2106516;28;20057;-73
2022/08/18 00:04:46;;;;;;;8.32;7.53;;;22.00;97.60;;;;;;2109318;28;20032;-73
2022/08/18 00:05:47;;;;;;;9.07;7.30;;;21.90;97.60;;;;;;2108972;28;20024;-73
2022/08/18 00:06:48;;;;;;;8.35;7.47;;;21.90;97.70;;;;;;2106771;28;20028;-74
2022/08/18 00:07:48;;;;;;;8.15;7.35;;;21.90;97.80;;;;;;2106512;28;20032;-74
2022/08/18 00:08:49;;;;;;;8.13;7.32;;;22.00;97.80;;;;;;2106467;28;20021;-72
2022/08/18 00:09:51;;;;;;;8.43;7.53;;;21.90;97.70;;;;;;2099604;28;20028;-74
2022/08/18 00:10:52;;;;;;;8.88;7.72;;;21.90;97.40;;;;;;2100333;28;20113;-73
2022/08/18 00:11:53;;;;;;;8.68;7.78;;;21.90;97.40;;;;;;2106840;28;20032;-73
2022/08/18 00:12:54;;;;;;;8.23;7.43;;;21.90;97.20;;;;;;2105845;28;20526;-73
2022/08/18 00:13:55;;;;;;;8.00;7.20;;;21.90;97.00;;;;;;2106742;28;20031;-73
2022/08/18 00:15:00;;;;;;;8.23;7.43;;;21.90;97.00;;;;;;2106013;28;20063;-74
2022/08/18 00:16:01;;;;;;;7.70;6.90;;;21.90;96.90;;;;;;2106124;28;20115;-73
2022/08/18 00:17:02;;;;;;;8.23;7.43;;;22.00;97.00;;;;;;2105616;28;20023;-74
2022/08/18 00:18:03;;;;;;;8.70;6.85;;;22.00;97.00;;;;;;2105599;28;20028;-74
2022/08/18 00:19:04;;;;;;;8.60;7.25;;;22.00;96.80;;;;;;2105451;28;20035;-74
2022/08/18 00:20:07;;;;;;;8.10;7.30;;;22.00;96.80;;;;;;2105701;28;20444;-75
2022/08/18 00:21:08;;;;;;;7.97;7.22;;;21.90;96.80;;;;;;2108532;28;20042;-74
2022/08/18 00:22:14;;;;;;;9.00;7.00;;;21.90;96.90;;;;;;2109055;28;20020;-71
2022/08/18 00:23:15;;;;;;;7.90;7.10;;;21.90;96.90;;;;;;2107030;28;20022;-73
2022/08/18 00:24:16;;;;;;;7.68;6.88;;;21.80;97.10;;;;;;2105709;28;20024;-73
2022/08/18 00:25:19;;;;;;;8.52;7.18;;;21.80;97.20;;;;;;2106250;28;20090;-73
2022/08/18 00:26:21;;;;;;;7.90;7.10;;;21.80;97.20;;;;;;2106459;28;20024;-73
2022/08/18 00:27:24;;;;;;;7.57;6.75;;;21.70;97.20;;;;;;2106337;28;20047;-72
2022/08/18 00:28:25;;;;;;;7.68;6.97;;;21.70;97.40;;;;;;2106240;28;20065;-73
2022/08/18 00:29:26;;;;;;;7.80;7.10;;;21.70;97.40;;;;;;2106114;28;20100;-73
2022/08/18 00:30:27;;;;;;;8.15;7.30;;;21.70;97.40;;;;;;2106445;28;20024;-73
2022/08/18 00:31:28;;;;;;;7.78;7.07;;;21.70;97.50;;;;;;2106029;28;20024;-74
2022/08/18 00:32:32;;;;;;;8.15;7.00;;;21.70;97.70;;;;;;2106373;28;20045;-74
2022/08/18 00:33:33;;;;;;;10.25;7.63;;;21.70;97.80;;;;;;2106620;28;20120;-75
2022/08/18 00:34:34;;;;;;;8.65;7.20;;;21.70;98.00;;;;;;2106063;28;20681;-74
2022/08/18 00:35:37;;;;;;;7.68;6.97;;;21.70;98.20;;;;;;2106616;28;20563;-74
2022/08/18 00:36:37;;;;;;;8.00;7.20;;;21.60;98.20;;;;;;2106715;28;20043;-76
2022/08/18 00:37:39;;;;;;;7.38;6.63;;;21.60;98.40;;;;;;2105598;28;20111;-74
2022/08/18 00:38:40;;;;;;;8.15;7.18;;;21.60;98.50;;;;;;2105835;28;20024;-76
2022/08/18 00:39:41;;;;;;;7.50;6.80;;;21.60;98.80;;;;;;2106632;28;20545;-75
2022/08/18 00:40:47;;;;;;;7.63;6.93;;;21.60;98.90;;;;;;2106718;28;20042;-75
2022/08/18 00:41:48;;;;;;;7.32;6.63;;;21.60;98.90;;;;;;2106228;28;20111;-75
2022/08/18 00:42:51;;;;;;;7.57;6.88;;;21.60;99.10;;;;;;2105913;28;20028;-75
2022/08/18 00:43:54;;;;;;;7.78;7.10;;;21.60;99.30;;;;;;2105905;28;20031;-74
2022/08/18 00:44:56;;;;;;;8.10;7.30;;;21.60;99.30;;;;;;2105758;28;20072;-75
2022/08/18 00:45:56;;;;;;;7.78;7.07;;;21.60;99.50;;;;;;2106273;28;20127;-73
2022/08/18 00:46:57;;;;;;;8.30;7.43;;;21.60;99.70;;;;;;2106212;28;20032;-73
2022/08/18 00:47:59;;;;;;;7.70;7.00;;;21.60;99.90;;;;;;2106198;28;20055;-73
2022/08/18 00:48:59;;;;;;;7.85;7.15;;;21.50;99.90;;;;;;2106371;28;20028;-75
2022/08/18 00:50:00;;;;;;;7.95;7.18;;;21.60;99.90;;;;;;2105752;28;20066;-74
2022/08/18 00:51:07;;;;;;;8.43;7.40;;;21.50;99.90;;;;;;2106183;28;20012;-73
2022/08/18 00:52:12;;;;;;;8.25;7.00;;;21.50;99.90;;;;;;2105780;28;20406;-73
2022/08/18 00:53:28;;;;;;;7.45;6.78;;;21.50;99.90;;;;;;2106013;28;20793;-73
2022/08/18 00:54:32;;;;;;;7.95;7.20;;;21.50;99.90;;;;;;2105797;28;20390;-73
2022/08/18 00:55:33;;;;;;;8.50;7.47;;;21.50;99.90;;;;;;2105655;28;20043;-73
2022/08/18 00:56:47;;;;;;;8.02;7.22;;;21.50;99.90;;;;;;2105934;28;20024;-73
2022/08/18 00:57:50;;;;;;;8.20;7.40;;;21.50;99.90;;;;;;2106063;28;20024;-73
2022/08/18 00:58:59;;;;;;;8.15;7.45;;;21.50;99.90;;;;;;2105940;28;20027;-74
2022/08/18 01:00:12;;;;;;;7.50;6.90;;;21.50;99.90;;;;;;2106036;28;20077;-74
2022/08/18 01:01:14;;;;;;;8.38;7.43;;;21.40;99.90;;;;;;2105524;28;20202;-74
2022/08/18 01:02:21;;;;;;;9.57;7.80;;;21.40;99.90;;;;;;2106182;28;20017;-76
2022/08/18 01:03:22;;;;;;;8.32;7.53;;;21.40;99.90;;;;;;2106489;28;20032;-73
2022/08/18 01:04:36;;;;;;;8.38;7.45;;;21.40;99.90;;;;;;2105817;28;20016;-73
2022/08/18 01:05:49;;;;;;;8.77;7.97;;;21.40;99.90;;;;;;2105645;28;20042;-74
2022/08/18 01:06:56;;;;;;;8.40;7.60;;;21.40;99.90;;;;;;2106233;28;20039;-74
2022/08/18 01:07:57;;;;;;;8.43;7.63;;;21.40;99.90;;;;;;2106485;28;20020;-74
2022/08/18 01:08:58;;;;;;;8.43;7.53;;;21.30;99.90;;;;;;2105808;28;20031;-73
2022/08/18 01:09:59;;;;;;;9.25;7.78;;;21.30;99.90;;;;;;2105509;28;20051;-73
2022/08/18 01:11:01;;;;;;;8.55;7.72;;;21.30;99.90;;;;;;2105425;28;20743;-73
2022/08/18 01:12:02;;;;;;;8.90;8.10;;;21.30;99.90;;;;;;2105318;28;20078;-74
2022/08/18 01:13:03;;;;;;;8.82;8.02;;;21.30;99.90;;;;;;2105407;28;20070;-73
2022/08/18 01:14:06;;;;;;;9.55;8.02;;;21.30;99.90;;;;;;2105850;28;20036;-73
2022/08/18 01:15:08;;;;;;;8.95;8.15;;;21.30;99.90;;;;;;2104942;28;20118;-72
2022/08/18 01:21:50;;;;;;;8.25;7.50;;;21.20;99.90;;;;;;2105618;28;20024;-72
2022/08/18 01:22:56;;;;;;;9.43;7.97;;;21.10;99.90;;;;;;2105902;28;20028;-72
2022/08/18 01:23:58;;;;;;;8.80;7.60;;;21.10;99.90;;;;;;2105718;28;20107;-72
2022/08/18 01:26:30;;;;;;;9.20;7.82;;;21.10;99.90;;;;;;2106123;28;20039;-72
2022/08/18 01:27:32;;;;;;;9.35;7.50;;;21.10;99.90;;;;;;2105825;28;20420;-73
2022/08/18 01:28:39;;;;;;;8.80;8.00;;;21.10;99.90;;;;;;2105107;28;20047;-72
2022/08/18 01:29:40;;;;;;;9.10;8.20;;;21.10;99.90;;;;;;2105173;28;20039;-73
2022/08/18 01:30:47;;;;;;;9.43;8.07;;;21.10;99.90;;;;;;2105973;28;20117;-73
2022/08/18 01:31:55;;;;;;;8.75;7.95;;;21.10;99.90;;;;;;2105804;28;20035;-73
2022/08/18 01:32:57;;;;;;;9.00;8.10;;;21.10;99.90;;;;;;2105844;28;20012;-73
2022/08/18 01:33:58;;;;;;;8.32;7.53;;;21.10;99.90;;;;;;2105677;28;20114;-73
2022/08/18 01:34:59;;;;;;;8.40;7.70;;;21.00;99.90;;;;;;2096636;28;20041;-73
2022/08/18 01:36:09;;;;;;;8.95;8.10;;;21.10;99.90;;;;;;2096717;28;20036;-72
2022/08/18 01:37:09;;;;;;;8.95;8.18;;;21.00;99.90;;;;;;2106032;28;20085;-73
2022/08/18 01:38:12;;;;;;;9.07;8.05;;;21.00;99.90;;;;;;2106614;28;20123;-73
2022/08/18 01:39:12;;;;;;;8.63;7.80;;;21.00;99.90;;;;;;2106528;28;20024;-72
2022/08/18 01:40:16;;;;;;;9.13;8.23;;;21.00;99.90;;;;;;2106307;28;20174;-73
2022/08/18 01:41:20;;;;;;;9.73;8.10;;;21.00;99.90;;;;;;2106067;28;20028;-73
2022/08/18 01:42:20;;;;;;;8.70;7.90;;;20.90;99.90;;;;;;2106001;28;20031;-73
2022/08/18 01:43:21;;;;;;;9.35;8.45;;;20.90;99.90;;;;;;2106491;28;20048;-73
2022/08/18 01:44:22;;;;;;;8.75;7.95;;;20.90;99.90;;;;;;2105972;28;20024;-74
2022/08/18 01:45:23;;;;;;;9.05;8.15;;;20.90;99.90;;;;;;2106084;28;20107;-72
2022/08/18 01:46:24;;;;;;;8.55;7.75;;;20.80;99.90;;;;;;2096659;28;20038;-74
2022/08/18 01:47:25;;;;;;;9.20;8.30;;;20.80;99.90;;;;;;2097079;28;20035;-71
2022/08/18 01:48:27;;;;;;;8.88;8.05;;;20.80;99.90;;;;;;2096637;28;20035;-72
2022/08/18 01:49:28;;;;;;;8.90;8.10;;;20.80;99.90;;;;;;2096698;28;20040;-72
2022/08/18 01:53:06;;;;;;;;;;;;;;;;;;;;;
2022/08/18 01:54:14;;;;;;;11.10;9.80;;;20.80;99.90;;;;;;2110473;28;20035;-72
2022/08/18 01:55:14;;;;;;;10.60;9.45;;;20.70;99.90;;;;;;2105206;28;20028;-72
2022/08/18 01:56:16;;;;;;;10.80;9.68;;;20.70;99.90;;;;;;2105067;28;20478;-72
2022/08/18 01:57:18;;;;;;;13.70;9.55;;;20.70;99.90;;;;;;2104932;28;20085;-72
2022/08/18 01:58:21;;;;;;;10.48;9.23;;;20.70;99.90;;;;;;2105267;28;20031;-73
2022/08/18 01:59:21;;;;;;;10.23;9.20;;;20.70;99.90;;;;;;2105623;28;20016;-72
2022/08/18 02:00:23;;;;;;;9.55;8.60;;;20.70;99.90;;;;;;2104896;28;20570;-73
2022/08/18 02:01:26;;;;;;;10.70;9.02;;;20.70;99.90;;;;;;2104857;28;20078;-72
2022/08/18 02:02:31;;;;;;;9.52;8.60;;;20.70;99.90;;;;;;2105425;28;20058;-72
2022/08/18 02:03:35;;;;;;;10.23;9.05;;;20.70;99.90;;;;;;2105588;28;20061;-72
2022/08/18 02:04:36;;;;;;;9.77;8.80;;;20.70;99.90;;;;;;2105150;28;20093;-72
2022/08/18 02:05:42;;;;;;;10.65;8.90;;;20.70;99.90;;;;;;2105539;28;20113;-72
2022/08/18 02:06:43;;;;;;;10.65;8.60;;;20.70;99.90;;;;;;2105698;28;20089;-72
2022/08/18 02:07:44;;;;;;;11.02;9.07;;;20.70;99.90;;;;;;2105385;28;20113;-72
2022/08/18 02:08:46;;;;;;;9.60;8.70;;;20.70;99.90;;;;;;2105229;28;20052;-73
2022/08/18 02:09:46;;;;;;;9.63;8.68;;;20.70;99.90;;;;;;2105289;28;20554;-73
2022/08/18 02:10:47;;;;;;;10.10;8.93;;;20.70;99.90;;;;;;2105761;28;20051;-73
2022/08/18 02:11:48;;;;;;;11.45;9.32;;;20.70;99.90;;;;;;2104776;28;20810;-73
2022/08/18 02:12:48;;;;;;;11.52;9.95;;;20.80;99.90;;;;;;2104935;28;20498;-73
2022/08/18 02:13:49;;;;;;;11.80;9.38;;;20.80;99.90;;;;;;2106100;28;20066;-73
2022/08/18 02:14:51;;;;;;;12.52;10.05;;;20.80;99.90;;;;;;2105536;28;20027;-73
2022/08/18 02:15:52;;;;;;;12.73;9.60;;;20.80;99.90;;;;;;2106295;28;20070;-73
2022/08/18 02:16:56;;;;;;;13.38;9.70;;;20.80;99.90;;;;;;2105472;28;20038;-72
2022/08/18 02:17:57;;;;;;;14.48;10.13;;;20.80;99.90;;;;;;2105287;28;20023;-73
2022/08/18 02:18:58;;;;;;;12.07;9.95;;;20.80;99.90;;;;;;2105389;28;20031;-73
2022/08/18 02:19:59;;;;;;;12.18;9.57;;;20.80;99.90;;;;;;2105557;28;20089;-72
2022/08/18 02:21:09;;;;;;;11.40;9.45;;;20.80;99.90;;;;;;2105260;28;20102;-73
2022/08/18 02:22:14;;;;;;;12.25;9.63;;;20.80;99.90;;;;;;2105425;28;20032;-73
2022/08/18 02:23:16;;;;;;;10.43;9.23;;;20.80;99.90;;;;;;2105452;28;20024;-74
2022/08/18 02:24:17;;;;;;;10.50;8.88;;;20.80;99.90;;;;;;2105261;28;20444;-73
2022/08/18 02:25:19;;;;;;;10.05;8.80;;;20.80;99.90;;;;;;2105617;28;20103;-72
2022/08/18 02:26:19;;;;;;;9.20;8.30;;;20.80;99.90;;;;;;2104506;28;20095;-73
2022/08/18 02:27:20;;;;;;;10.63;8.50;;;20.90;99.90;;;;;;2104640;28;20047;-72
2022/08/18 02:28:21;;;;;;;9.32;8.32;;;20.90;99.90;;;;;;2105227;28;20113;-74
2022/08/18 02:29:21;;;;;;;9.93;8.20;;;20.90;99.90;;;;;;2105321;28;20103;-73
2022/08/18 02:30:22;;;;;;;8.80;7.82;;;20.90;99.90;;;;;;2105286;28;20111;-73
2022/08/18 02:31:24;;;;;;;8.98;8.07;;;20.90;99.90;;;;;;2105347;28;20530;-71
2022/08/18 02:32:25;;;;;;;8.98;8.18;;;20.90;99.90;;;;;;2104512;28;20730;-71
2022/08/18 02:33:25;;;;;;;8.68;7.88;;;20.90;99.90;;;;;;2104564;28;20040;-72
2022/08/18 02:34:26;;;;;;;9.05;7.82;;;20.90;99.90;;;;;;2105027;28;20035;-71
2022/08/18 02:35:27;;;;;;;8.13;7.40;;;20.90;99.90;;;;;;2104352;28;20131;-72
2022/08/18 02:36:28;;;;;;;8.40;7.53;;;20.90;99.90;;;;;;2104438;28;20078;-72
2022/08/18 02:37:30;;;;;;;8.95;8.15;;;20.90;99.90;;;;;;2105400;28;20798;-72
2022/08/18 02:38:30;;;;;;;10.30;8.70;;;20.90;99.90;;;;;;2105639;28;20031;-72
2022/08/18 02:39:34;;;;;;;9.05;8.13;;;20.90;99.90;;;;;;2105350;28;20075;-72
2022/08/18 02:40:35;;;;;;;9.65;8.40;;;20.90;99.90;;;;;;2105454;28;20107;-73
2022/08/18 02:41:35;;;;;;;9.70;8.68;;;20.90;99.90;;;;;;2105214;28;20081;-73
2022/08/18 02:42:37;;;;;;;9.15;8.25;;;20.80;99.90;;;;;;2104644;28;20078;-72
2022/08/18 02:43:39;;;;;;;8.90;8.05;;;20.90;99.90;;;;;;2104727;28;20016;-72
2022/08/18 02:44:39;;;;;;;8.65;7.82;;;20.80;99.90;;;;;;2105229;28;20051;-72
2022/08/18 02:45:40;;;;;;;9.48;8.35;;;20.80;99.90;;;;;;2105202;28;20401;-72
2022/08/18 02:46:40;;;;;;;8.90;7.47;;;20.80;99.90;;;;;;2105247;28;20564;-73
2022/08/18 02:47:42;;;;;;;9.40;8.30;;;20.80;99.90;;;;;;2104584;28;20105;-72
2022/08/18 02:48:42;;;;;;;8.93;8.13;;;20.80;99.90;;;;;;2104497;28;20032;-72
2022/08/18 02:49:43;;;;;;;8.95;8.05;;;20.80;99.90;;;;;;2104653;28;20058;-72
2022/08/18 02:50:45;;;;;;;9.13;8.20;;;20.80;99.90;;;;;;2106575;28;20496;-72
2022/08/18 02:51:46;;;;;;;8.82;8.00;;;20.80;99.90;;;;;;2108561;28;20035;-72
2022/08/18 02:52:47;;;;;;;10.00;8.70;;;20.80;99.90;;;;;;2108601;28;20472;-72
2022/08/18 02:53:48;;;;;;;8.77;7.90;;;20.80;99.90;;;;;;2105908;28;20024;-72
2022/08/18 02:54:49;;;;;;;8.68;7.88;;;20.80;99.90;;;;;;2105265;28;20056;-72
2022/08/18 02:55:49;;;;;;;9.15;8.25;;;20.80;99.90;;;;;;2104367;28;20043;-72
2022/08/18 02:56:51;;;;;;;9.00;8.20;;;20.80;99.90;;;;;;2096336;28;20016;-73
2022/08/18 02:57:52;;;;;;;9.18;8.27;;;20.70;99.90;;;;;;2104789;28;20095;-72
2022/08/18 02:59:04;;;;;;;9.40;8.40;;;20.70;99.90;;;;;;2105142;28;20028;-72
2022/08/18 03:00:05;;;;;;;9.10;8.25;;;20.70;99.90;;;;;;2105309;28;20027;-72
2022/08/18 03:01:06;;;;;;;9.15;8.25;;;20.70;99.90;;;;;;2105099;28;20555;-72
2022/08/18 03:02:08;;;;;;;8.90;8.00;;;20.70;99.90;;;;;;2104787;28;20023;-72
2022/08/18 03:03:09;;;;;;;8.65;7.85;;;20.70;99.90;;;;;;2096414;28;20024;-72
2022/08/18 03:04:13;;;;;;;8.90;8.00;;;20.70;99.90;;;;;;2104240;28;20038;-72
2022/08/18 03:05:14;;;;;;;9.75;8.38;;;20.70;99.90;;;;;;2105165;28;20613;-72
2022/08/18 03:06:17;;;;;;;9.07;8.23;;;20.70;99.90;;;;;;2104968;28;20475;-72
2022/08/18 03:07:17;;;;;;;9.25;8.35;;;20.70;99.90;;;;;;2105076;28;20092;-72
2022/08/18 03:08:18;;;;;;;8.80;8.00;;;20.70;99.90;;;;;;2104944;28;20503;-72
2022/08/18 03:09:19;;;;;;;9.05;8.15;;;20.70;99.90;;;;;;2104926;28;20031;-73
2022/08/18 03:10:19;;;;;;;8.65;7.85;;;20.70;99.90;;;;;;2105077;28;20029;-73
2022/08/18 03:11:26;;;;;;;9.13;8.10;;;20.70;99.90;;;;;;2105106;28;20030;-73
2022/08/18 03:12:27;;;;;;;8.68;7.88;;;20.70;99.90;;;;;;2105066;28;20020;-74
2022/08/18 03:13:29;;;;;;;9.00;8.20;;;20.70;99.90;;;;;;2104981;28;20052;-72
2022/08/18 03:14:29;;;;;;;9.13;8.07;;;20.60;99.90;;;;;;2104605;28;20494;-73
2022/08/18 03:15:30;;;;;;;8.82;7.93;;;20.60;99.90;;;;;;2104984;28;20056;-72
2022/08/18 03:16:33;;;;;;;9.10;8.25;;;20.60;99.90;;;;;;2105084;28;20158;-72
2022/08/18 03:17:36;;;;;;;9.02;8.13;;;20.60;99.90;;;;;;2105231;28;20023;-72
2022/08/18 03:18:37;;;;;;;9.07;8.18;;;20.60;99.90;;;;;;2104992;28;20039;-72
2022/08/18 03:19:38;;;;;;;8.30;7.50;;;20.60;99.90;;;;;;2104840;28;20028;-73
2022/08/18 03:20:40;;;;;;;10.93;8.45;;;20.60;99.90;;;;;;2105281;28;20474;-73
2022/08/18 03:21:44;;;;;;;9.00;8.15;;;20.60;99.90;;;;;;2105116;28;20024;-73
2022/08/18 03:22:44;;;;;;;9.40;8.45;;;20.60;99.90;;;;;;2105232;28;20032;-72
2022/08/18 03:23:45;;;;;;;9.23;8.43;;;20.60;99.90;;;;;;2105218;28;20028;-73
2022/08/18 03:24:46;;;;;;;8.90;8.07;;;20.50;99.90;;;;;;2106413;28;20039;-73
2022/08/18 03:25:48;;;;;;;9.52;8.65;;;20.50;99.90;;;;;;2106719;28;20038;-72
2022/08/18 03:26:51;;;;;;;8.63;7.82;;;20.50;99.90;;;;;;2106674;28;20022;-74
2022/08/18 03:27:51;;;;;;;9.02;8.23;;;20.50;99.90;;;;;;2106755;28;20161;-74
2022/08/18 03:28:53;;;;;;;9.90;8.40;;;20.50;99.90;;;;;;2106349;28;20119;-73
2022/08/18 03:29:54;;;;;;;8.95;8.10;;;20.50;99.90;;;;;;2106360;28;20020;-73
2022/08/18 03:30:55;;;;;;;9.05;8.25;;;20.50;99.90;;;;;;2106688;28;20075;-73
2022/08/18 03:31:55;;;;;;;8.65;7.85;;;20.50;99.90;;;;;;2106921;28;20024;-73
2022/08/18 03:32:56;;;;;;;9.43;8.52;;;20.50;99.90;;;;;;2106047;28;20391;-73
2022/08/18 03:33:58;;;;;;;8.70;7.90;;;20.50;99.90;;;;;;2105979;28;20077;-73
2022/08/18 03:34:59;;;;;;;9.27;8.30;;;20.50;99.90;;;;;;2106491;28;20470;-73
2022/08/18 03:36:04;;;;;;;9.23;8.40;;;20.50;99.90;;;;;;2106479;28;20024;-72
2022/08/18 03:37:05;;;;;;;9.52;8.52;;;20.50;99.90;;;;;;2106458;28;20085;-72
2022/08/18 03:38:06;;;;;;;9.52;8.57;;;20.50;99.90;;;;;;2106302;28;20102;-72
2022/08/18 03:39:10;;;;;;;9.55;8.57;;;20.50;99.90;;;;;;2106449;28;20339;-73
2022/08/18 03:40:11;;;;;;;9.48;8.57;;;20.50;99.90;;;;;;2105906;28;20028;-72
2022/08/18 03:41:13;;;;;;;9.27;8.38;;;20.50;99.90;;;;;;2106090;28;20032;-72
2022/08/18 03:42:15;;;;;;;9.45;8.65;;;20.50;99.90;;;;;;2106631;28;20039;-72
2022/08/18 03:43:15;;;;;;;10.10;8.40;;;20.50;99.90;;;;;;2106544;28;20696;-73
2022/08/18 03:44:16;;;;;;;9.18;8.27;;;20.50;99.90;;;;;;2106298;28;20028;-73
2022/08/18 03:45:17;;;;;;;9.13;8.32;;;20.40;99.90;;;;;;2106922;28;20102;-75
2022/08/18 03:46:20;;;;;;;9.32;8.52;;;20.50;99.90;;;;;;2107431;28;20031;-74
2022/08/18 03:47:21;;;;;;;9.68;8.65;;;20.40;99.90;;;;;;2107241;28;20031;-74
2022/08/18 03:48:22;;;;;;;9.38;8.45;;;20.40;99.90;;;;;;2108683;28;20103;-75
2022/08/18 03:49:23;;;;;;;9.38;8.50;;;20.40;99.90;;;;;;2109361;28;20091;-75
2022/08/18 03:50:24;;;;;;;9.50;8.40;;;20.40;99.90;;;;;;2109164;28;20020;-75
2022/08/18 03:51:32;;;;;;;9.52;8.50;;;20.40;99.90;;;;;;2108499;28;20055;-74
2022/08/18 03:52:37;;;;;;;9.63;8.45;;;20.40;99.90;;;;;;2110807;28;20080;-74
2022/08/18 03:53:41;;;;;;;9.50;8.60;;;20.40;99.90;;;;;;2112135;28;20051;-75
2022/08/18 03:54:42;;;;;;;9.60;8.35;;;20.40;99.90;;;;;;2111521;28;20046;-76
2022/08/18 03:55:43;;;;;;;9.10;8.30;;;20.40;99.90;;;;;;2112239;28;20471;-75
2022/08/18 03:56:48;;;;;;;9.48;8.52;;;20.40;99.90;;;;;;2110668;28;20032;-74
2022/08/18 03:57:51;;;;;;;9.43;8.63;;;20.40;99.90;;;;;;2110598;28;20128;-74
2022/08/18 03:58:55;;;;;;;9.68;8.68;;;20.40;99.90;;;;;;2108655;28;20081;-74
2022/08/18 03:59:56;;;;;;;9.80;8.73;;;20.40;99.90;;;;;;2108768;28;20163;-74
2022/08/18 04:00:57;;;;;;;10.23;8.48;;;20.30;99.90;;;;;;2111548;28;20069;-75
2022/08/18 04:01:58;;;;;;;9.25;8.23;;;20.30;99.90;;;;;;2108574;28;20020;-75
2022/08/18 04:03:01;;;;;;;9.35;8.45;;;20.30;99.90;;;;;;2107399;28;20020;-73
2022/08/18 04:04:04;;;;;;;9.43;8.40;;;20.30;99.90;;;;;;2115004;28;20008;-73
2022/08/18 04:05:06;;;;;;;9.43;8.52;;;20.30;99.90;;;;;;2116269;28;20019;-73
2022/08/18 04:06:06;;;;;;;10.07;9.05;;;20.30;99.90;;;;;;2116702;28;20016;-75
2022/08/18 04:07:10;;;;;;;9.90;8.90;;;20.30;99.90;;;;;;2116885;28;20024;-75
2022/08/18 04:08:12;;;;;;;9.32;8.43;;;20.20;99.90;;;;;;2115701;28;20016;-72
2022/08/18 04:09:16;;;;;;;10.10;9.07;;;20.20;99.90;;;;;;2116299;28;20042;-74
2022/08/18 04:10:21;;;;;;;11.32;9.13;;;20.20;99.90;;;;;;2116977;28;20020;-74
2022/08/18 04:11:36;;;;;;;9.93;9.02;;;20.20;99.90;;;;;;2115331;28;20036;-74
2022/08/18 04:12:45;;;;;;;10.32;9.18;;;20.20;99.90;;;;;;2106947;28;20089;-74
2022/08/18 04:13:52;;;;;;;9.77;8.77;;;20.20;99.90;;;;;;2103831;28;20032;-75
2022/08/18 04:15:03;;;;;;;9.82;8.93;;;20.20;99.90;;;;;;2097308;28;20027;-74
2022/08/18 04:16:04;;;;;;;9.57;8.68;;;20.20;99.90;;;;;;2104495;28;20032;-74
2022/08/18 04:17:12;;;;;;;9.88;8.90;;;20.20;99.90;;;;;;2102406;28;20029;-75
2022/08/18 04:18:13;;;;;;;9.93;9.00;;;20.20;99.90;;;;;;2103914;28;20107;-74
2022/08/18 04:19:16;;;;;;;10.20;9.20;;;20.20;99.90;;;;;;2110059;28;20670;-75
2022/08/18 04:20:17;;;;;;;11.27;8.98;;;20.20;99.90;;;;;;2109341;28;20478;-75
2022/08/18 04:21:18;;;;;;;9.77;8.73;;;20.20;99.90;;;;;;2110824;28;20021;-74
2022/08/18 04:22:25;;;;;;;10.07;9.07;;;20.10;99.90;;;;;;2102437;28;20033;-74
2022/08/18 04:23:49;;;;;;;10.07;9.07;;;20.10;99.90;;;;;;2104154;28;20050;-74
2022/08/18 04:24:51;;;;;;;9.68;8.77;;;20.10;99.90;;;;;;2111605;28;20081;-74
2022/08/18 04:26:06;;;;;;;9.95;8.98;;;20.10;99.90;;;;;;2111769;28;20039;-74
2022/08/18 04:27:06;;;;;;;9.80;8.82;;;20.10;99.90;;;;;;2110039;28;20035;-74
2022/08/18 04:28:07;;;;;;;9.98;9.07;;;20.10;99.90;;;;;;2110096;28;20095;-73
2022/08/18 04:29:09;;;;;;;10.35;9.10;;;20.10;99.90;;;;;;2109583;28;20039;-73
2022/08/18 04:30:11;;;;;;;11.35;9.23;;;20.10;99.90;;;;;;2110130;28;20028;-73
2022/08/18 04:31:14;;;;;;;10.73;9.20;;;20.10;99.90;;;;;;2109258;28;20035;-74
2022/08/18 04:32:15;;;;;;;10.63;9.48;;;20.10;99.90;;;;;;2110378;28;20083;-74
2022/08/18 04:33:16;;;;;;;10.07;9.05;;;20.10;99.90;;;;;;2109562;28;20103;-73
2022/08/18 04:34:19;;;;;;;9.90;8.93;;;20.10;99.90;;;;;;2101185;28;20355;-74
2022/08/18 04:35:22;;;;;;;10.85;9.00;;;20.10;99.90;;;;;;2100738;28;20071;-75
2022/08/18 04:36:24;;;;;;;10.73;9.00;;;20.20;99.90;;;;;;2100325;28;20031;-74
2022/08/18 04:37:31;;;;;;;10.63;9.00;;;20.20;99.90;;;;;;2100214;28;20033;-74
2022/08/18 04:38:34;;;;;;;9.93;8.75;;;20.20;99.90;;;;;;2093204;28;20024;-74
2022/08/18 04:39:38;;;;;;;10.05;9.13;;;20.20;99.90;;;;;;2108796;28;20134;-74
2022/08/18 04:40:40;;;;;;;11.93;9.05;;;20.20;99.90;;;;;;2100073;28;20029;-74
2022/08/18 04:41:42;;;;;;;10.52;9.48;;;20.20;99.90;;;;;;2090991;28;20062;-75
2022/08/18 04:42:44;;;;;;;11.05;9.20;;;20.20;99.90;;;;;;2098147;28;20025;-74
2022/08/18 04:43:46;;;;;;;9.88;8.88;;;20.20;99.90;;;;;;2106790;28;20535;-75
2022/08/18 04:44:47;;;;;;;10.18;9.02;;;20.20;99.90;;;;;;2106999;28;20107;-74
2022/08/18 04:45:49;;;;;;;10.20;9.07;;;20.30;99.90;;;;;;2106927;28;20432;-76
2022/08/18 04:46:52;;;;;;;10.63;9.18;;;20.30;99.90;;;;;;2105858;28;20084;-75
2022/08/18 04:47:53;;;;;;;10.35;8.88;;;20.30;99.90;;;;;;2106432;28;20027;-79
2022/08/18 04:48:57;;;;;;;11.43;9.18;;;20.30;99.90;;;;;;2107326;28;20024;-77
2022/08/18 04:49:58;;;;;;;10.15;9.07;;;20.40;99.90;;;;;;2107096;28;20100;-77
2022/08/18 04:51:04;;;;;;;10.60;9.50;;;20.40;99.90;;;;;;2098581;28;20102;-74
2022/08/18 04:54:44;;;;;;;10.38;9.20;;;20.60;99.90;;;;;;2106630;28;20065;-76
2022/08/18 04:55:47;;;;;;;10.35;9.25;;;20.60;99.90;;;;;;2106381;28;20038;-76
2022/08/18 04:56:48;;;;;;;10.25;8.75;;;20.60;99.90;;;;;;2107225;28;20024;-77
2022/08/18 04:57:48;;;;;;;9.65;8.75;;;20.70;99.90;;;;;;2107024;28;20025;-76
2022/08/18 04:58:50;;;;;;;9.60;8.50;;;20.70;99.90;;;;;;2106952;28;20716;-79
2022/08/18 04:59:52;;;;;;;10.95;9.35;;;20.70;99.90;;;;;;2106485;28;20028;-75
2022/08/18 05:00:59;;;;;;;10.18;8.93;;;20.80;99.90;;;;;;2106639;28;20016;-76
2022/08/18 05:02:04;;;;;;;10.18;9.18;;;20.80;99.90;;;;;;2107099;28;20527;-74
2022/08/18 05:03:05;;;;;;;11.10;9.32;;;20.90;99.90;;;;;;2107042;28;20555;-75
2022/08/18 05:04:06;;;;;;;10.65;9.60;;;20.90;99.90;;;;;;2107263;28;20074;-74
2022/08/18 05:05:07;;;;;;;11.13;9.35;;;21.00;99.90;;;;;;2107194;28;20094;-79
2022/08/18 05:06:08;;;;;;;10.32;9.32;;;21.00;99.90;;;;;;2107124;28;20027;-77
2022/08/18 05:07:10;;;;;;;10.38;9.27;;;21.10;99.90;;;;;;2107785;28;20486;-78
2022/08/18 05:08:11;;;;;;;10.63;9.43;;;21.20;99.90;;;;;;2106926;28;20028;-80
2022/08/18 05:09:13;;;;;;;10.13;8.90;;;21.30;99.90;;;;;;2090282;28;20086;-77
2022/08/18 05:10:16;;;;;;;11.70;8.75;;;21.50;99.90;;;;;;2098875;28;20098;-76
2022/08/18 05:11:17;;;;;;;9.43;8.40;;;21.70;99.90;;;;;;2108002;28;20035;-76
2022/08/18 05:12:17;;;;;;;9.82;8.80;;;21.90;99.90;;;;;;2109010;28;20067;-77
2022/08/18 05:13:19;;;;;;;10.07;8.48;;;22.10;99.90;;;;;;2106358;28;20136;-78
2022/08/18 05:14:20;;;;;;;11.20;8.68;;;22.30;99.90;;;;;;2096993;28;20029;-74
2022/08/18 05:15:20;;;;;;;9.35;8.35;;;22.50;99.90;;;;;;2090171;28;20040;-76
2022/08/18 05:16:21;;;;;;;10.13;8.40;;;22.70;99.90;;;;;;2098362;28;20093;-75
2022/08/18 05:17:27;;;;;;;9.13;8.23;;;22.90;99.90;;;;;;2106378;28;20063;-77
2022/08/18 05:18:32;;;;;;;10.90;8.23;;;23.00;99.90;;;;;;2106719;28;20426;-77
2022/08/18 05:19:34;;;;;;;9.07;8.27;;;23.10;99.90;;;;;;2107170;28;20031;-79
2022/08/18 05:20:42;;;;;;;9.27;8.27;;;23.10;99.90;;;;;;2106654;28;20032;-79
2022/08/18 05:21:45;;;;;;;9.30;8.40;;;23.00;99.90;;;;;;2099909;28;20052;-78
2022/08/18 05:22:46;;;;;;;9.77;7.72;;;23.00;99.90;;;;;;2098649;28;20028;-75
2022/08/18 05:23:48;;;;;;;10.45;8.43;;;22.90;99.90;;;;;;2107399;28;20585;-76
2022/08/18 05:24:49;;;;;;;9.63;8.50;;;22.80;99.90;;;;;;2106870;28;20669;-77
2022/08/18 05:25:55;;;;;;;9.23;8.32;;;22.70;99.90;;;;;;2106914;28;20028;-80
2022/08/18 05:26:56;;;;;;;14.45;8.65;;;22.70;99.90;;;;;;2106889;28;20020;-78
2022/08/18 05:27:56;;;;;;;8.98;8.10;;;22.60;99.90;;;;;;2106785;28;20060;-77
2022/08/18 05:28:58;;;;;;;9.63;7.97;;;22.60;99.90;;;;;;2106797;28;20032;-78
2022/08/18 05:29:58;;;;;;;9.55;8.48;;;22.60;99.90;;;;;;2107077;28;20036;-78
2022/08/18 05:31:05;;;;;;;9.00;8.10;;;22.60;99.90;;;;;;2106272;28;20040;-77
2022/08/18 05:32:06;;;;;;;8.98;7.97;;;22.60;99.90;;;;;;2106547;28;20468;-78
2022/08/18 05:33:10;;;;;;;9.25;8.25;;;22.60;99.90;;;;;;2107155;28;20028;-78
2022/08/18 05:34:11;;;;;;;9.68;8.50;;;22.70;99.90;;;;;;2105887;28;20055;-77
2022/08/18 05:35:28;;;;;;;10.35;8.00;;;22.70;99.90;;;;;;2097893;28;20037;-78
2022/08/18 05:37:09;;;;;;;11.68;8.30;;;22.60;99.90;;;;;;2101475;28;20089;-76
2022/08/18 05:38:30;;;;;;;11.48;8.30;;;22.60;99.90;;;;;;2106470;28;20027;-77